LOT4KK EVRA-EPWA
Flight info
| Callsign | LOT4KK |
|---|---|
| Flight time | 1h 3m |
| Altitude | 38000 |
| Route | BERIL DCT IRZUK/N0429F310 DCT BOKSU/N0432F320 M857 UNPEG/N0359F200 M857 GERVI P851 NEPOX |
| Aircraft | B738/M-SDE2E3FGHIJ1RWXY/LB1 |
Departure
| Time | 2026-05-04 16:41 |
|---|---|
| Airport | Riga International Airport (EVRA) |
Arrival
| Time | 2026-05-04 17:45 |
|---|---|
| Airport | Warsaw Chopin Airport (EPWA) |
| Time | Latitude | Longitude | Altitude | Speed | Heading |
|---|---|---|---|---|---|
| 2026-05-04 16:08 | 56.92194 | 23.97663 | 43 ft | 0 kts | 5° |
| 2026-05-04 16:32 | 56.92182 | 23.97661 | 40 ft | 3 kts | 2° |
| 2026-05-04 16:33 | 56.92143 | 23.97672 | 40 ft | 3 kts | 323° |
| 2026-05-04 16:33 | 56.92132 | 23.97699 | 43 ft | 0 kts | 275° |
| 2026-05-04 16:35 | 56.92134 | 23.97670 | 41 ft | 5 kts | 275° |
| 2026-05-04 16:36 | 56.92138 | 23.97566 | 43 ft | 11 kts | 275° |
| 2026-05-04 16:36 | 56.92208 | 23.97473 | 43 ft | 7 kts | 4° |
| 2026-05-04 16:37 | 56.92304 | 23.97487 | 43 ft | 7 kts | 6° |
| 2026-05-04 16:37 | 56.92357 | 23.97498 | 43 ft | 8 kts | 7° |
| 2026-05-04 16:37 | 56.92498 | 23.97530 | 43 ft | 13 kts | 5° |
| 2026-05-04 16:38 | 56.92727 | 23.97568 | 43 ft | 18 kts | 5° |
| 2026-05-04 16:39 | 56.93084 | 23.97626 | 43 ft | 16 kts | 5° |
| 2026-05-04 16:39 | 56.93288 | 23.97569 | 43 ft | 14 kts | 1° |
| 2026-05-04 16:40 | 56.93449 | 23.97565 | 43 ft | 11 kts | 327° |
| 2026-05-04 16:40 | 56.93489 | 23.97311 | 42 ft | 4 kts | 263° |
| 2026-05-04 16:41 | 56.93278 | 23.97265 | 42 ft | 59 kts | 185° |
| 2026-05-04 16:41 | 56.90604 | 23.96798 | 816 ft | 156 kts | 191° |
| 2026-05-04 16:42 | 56.86835 | 23.96109 | 2074 ft | 210 kts | 192° |
| 2026-05-04 16:43 | 56.84142 | 23.94217 | 3115 ft | 219 kts | 232° |
| 2026-05-04 16:43 | 56.81933 | 23.89944 | 4181 ft | 244 kts | 214° |
| 2026-05-04 16:43 | 56.80442 | 23.88437 | 4949 ft | 245 kts | 214° |
| 2026-05-04 16:44 | 56.74468 | 23.82274 | 8002 ft | 253 kts | 216° |
| 2026-05-04 16:45 | 56.71395 | 23.79068 | 9573 ft | 257 kts | 216° |
| 2026-05-04 16:46 | 56.66324 | 23.73739 | 10592 ft | 312 kts | 215° |
| 2026-05-04 16:46 | 56.62469 | 23.69720 | 11871 ft | 323 kts | 214° |
| 2026-05-04 16:47 | 56.58538 | 23.65635 | 13400 ft | 329 kts | 214° |
| 2026-05-04 16:47 | 56.54515 | 23.61454 | 14827 ft | 336 kts | 214° |
| 2026-05-04 16:48 | 56.48357 | 23.55071 | 17017 ft | 345 kts | 214° |
| 2026-05-04 16:48 | 56.46264 | 23.52905 | 17715 ft | 348 kts | 214° |
| 2026-05-04 16:49 | 56.42048 | 23.48550 | 19018 ft | 353 kts | 215° |
| 2026-05-04 16:49 | 56.37744 | 23.44154 | 20284 ft | 359 kts | 212° |
| 2026-05-04 16:50 | 56.32900 | 23.41309 | 21490 ft | 376 kts | 198° |
| 2026-05-04 16:50 | 56.27726 | 23.39523 | 22630 ft | 382 kts | 198° |
| 2026-05-04 16:51 | 56.22476 | 23.37722 | 23687 ft | 386 kts | 199° |
| 2026-05-04 16:51 | 56.19829 | 23.36805 | 24167 ft | 388 kts | 199° |
| 2026-05-04 16:51 | 56.14504 | 23.34949 | 25071 ft | 392 kts | 199° |
| 2026-05-04 16:52 | 56.09119 | 23.33066 | 25948 ft | 396 kts | 199° |
| 2026-05-04 16:52 | 56.06405 | 23.32118 | 26370 ft | 399 kts | 199° |
| 2026-05-04 16:53 | 56.00936 | 23.30212 | 27206 ft | 402 kts | 198° |
| 2026-05-04 16:53 | 55.92763 | 23.27384 | 28884 ft | 396 kts | 198° |
| 2026-05-04 16:54 | 55.90062 | 23.26450 | 29431 ft | 395 kts | 198° |
| 2026-05-04 16:55 | 55.79334 | 23.22744 | 31156 ft | 394 kts | 198° |
| 2026-05-04 16:55 | 55.73960 | 23.20896 | 31891 ft | 395 kts | 198° |
| 2026-05-04 16:56 | 55.60482 | 23.16288 | 31902 ft | 393 kts | 198° |
| 2026-05-04 16:57 | 55.52420 | 23.13546 | 31910 ft | 393 kts | 198° |
| 2026-05-04 16:58 | 55.41655 | 23.09901 | 31907 ft | 394 kts | 198° |
| 2026-05-04 17:00 | 55.25428 | 23.04445 | 31923 ft | 397 kts | 198° |
| 2026-05-04 17:00 | 55.17013 | 23.03765 | 31896 ft | 409 kts | 186° |
| 2026-05-04 17:01 | 55.11325 | 23.03976 | 31918 ft | 409 kts | 186° |
| 2026-05-04 17:02 | 54.99926 | 23.04298 | 31926 ft | 410 kts | 186° |
| 2026-05-04 17:03 | 54.91344 | 23.04499 | 31925 ft | 412 kts | 186° |
| 2026-05-04 17:03 | 54.82733 | 23.04702 | 31928 ft | 413 kts | 186° |
| 2026-05-04 17:04 | 54.71214 | 23.04973 | 31929 ft | 415 kts | 186° |
| 2026-05-04 17:05 | 54.59672 | 23.05244 | 31913 ft | 415 kts | 185° |
| 2026-05-04 17:06 | 54.51007 | 23.05447 | 31926 ft | 415 kts | 185° |
| 2026-05-04 17:07 | 54.43319 | 23.05626 | 31897 ft | 415 kts | 185° |
| 2026-05-04 17:07 | 54.36605 | 23.05782 | 31920 ft | 415 kts | 185° |
| 2026-05-04 17:08 | 54.28150 | 23.04310 | 31915 ft | 401 kts | 205° |
| 2026-05-04 17:09 | 54.22977 | 23.00798 | 31918 ft | 400 kts | 207° |
| 2026-05-04 17:09 | 54.17797 | 22.97251 | 31913 ft | 401 kts | 206° |
| 2026-05-04 17:10 | 54.04450 | 22.89758 | 31904 ft | 407 kts | 200° |
| 2026-05-04 17:11 | 53.99007 | 22.87135 | 31914 ft | 407 kts | 201° |
| 2026-05-04 17:12 | 53.90842 | 22.83069 | 31909 ft | 408 kts | 201° |
| 2026-05-04 17:13 | 53.77207 | 22.76316 | 31902 ft | 408 kts | 201° |
| 2026-05-04 17:14 | 53.66350 | 22.70985 | 31904 ft | 407 kts | 201° |
| 2026-05-04 17:15 | 53.58208 | 22.67005 | 31892 ft | 406 kts | 201° |
| 2026-05-04 17:16 | 53.47338 | 22.61715 | 31902 ft | 407 kts | 201° |
| 2026-05-04 17:17 | 53.36429 | 22.56435 | 31891 ft | 409 kts | 200° |
| 2026-05-04 17:17 | 53.28348 | 22.52550 | 31223 ft | 395 kts | 200° |
| 2026-05-04 17:18 | 53.25717 | 22.51287 | 30971 ft | 392 kts | 201° |
| 2026-05-04 17:18 | 53.20481 | 22.48774 | 30483 ft | 390 kts | 201° |
| 2026-05-04 17:19 | 53.16152 | 22.46701 | 30076 ft | 389 kts | 201° |
| 2026-05-04 17:19 | 53.10958 | 22.44220 | 29513 ft | 388 kts | 200° |
| 2026-05-04 17:20 | 53.05779 | 22.41752 | 28934 ft | 387 kts | 200° |
| 2026-05-04 17:20 | 53.00646 | 22.39316 | 28274 ft | 379 kts | 200° |
| 2026-05-04 17:20 | 52.98092 | 22.38108 | 27876 ft | 375 kts | 200° |
| 2026-05-04 17:21 | 52.93150 | 22.35770 | 27097 ft | 368 kts | 199° |
| 2026-05-04 17:21 | 52.88264 | 22.33463 | 26320 ft | 362 kts | 199° |
| 2026-05-04 17:22 | 52.85848 | 22.32324 | 25939 ft | 360 kts | 199° |
| 2026-05-04 17:22 | 52.83453 | 22.31196 | 25566 ft | 357 kts | 199° |
| 2026-05-04 17:23 | 52.76343 | 22.27856 | 24463 ft | 351 kts | 198° |
| 2026-05-04 17:23 | 52.74000 | 22.26757 | 24096 ft | 350 kts | 198° |
| 2026-05-04 17:23 | 52.69340 | 22.24576 | 23317 ft | 347 kts | 198° |
| 2026-05-04 17:24 | 52.67021 | 22.23494 | 22904 ft | 345 kts | 198° |
| 2026-05-04 17:24 | 52.60170 | 22.20303 | 21785 ft | 337 kts | 198° |
| 2026-05-04 17:25 | 52.57925 | 22.19259 | 21433 ft | 334 kts | 199° |
| 2026-05-04 17:25 | 52.53487 | 22.17199 | 20733 ft | 329 kts | 199° |
| 2026-05-04 17:26 | 52.49109 | 22.15170 | 20024 ft | 324 kts | 199° |
| 2026-05-04 17:26 | 52.42657 | 22.12188 | 19009 ft | 318 kts | 199° |
| 2026-05-04 17:27 | 52.38417 | 22.10233 | 18339 ft | 314 kts | 199° |
| 2026-05-04 17:27 | 52.34230 | 22.08306 | 17601 ft | 311 kts | 200° |
| 2026-05-04 17:28 | 52.30104 | 22.06410 | 16919 ft | 305 kts | 199° |
| 2026-05-04 17:29 | 52.24040 | 22.03631 | 15943 ft | 298 kts | 199° |
| 2026-05-04 17:29 | 52.18352 | 22.00173 | 15004 ft | 285 kts | 227° |
| 2026-05-04 17:30 | 52.16705 | 21.91342 | 14933 ft | 277 kts | 275° |
| 2026-05-04 17:31 | 52.17294 | 21.85450 | 14900 ft | 253 kts | 276° |
| 2026-05-04 17:31 | 52.18093 | 21.77226 | 13600 ft | 258 kts | 276° |
| 2026-05-04 17:32 | 52.18646 | 21.71392 | 12543 ft | 259 kts | 276° |
| 2026-05-04 17:33 | 52.18511 | 21.63026 | 11212 ft | 248 kts | 236° |
| 2026-05-04 17:33 | 52.17496 | 21.60766 | 10770 ft | 247 kts | 233° |
| 2026-05-04 17:34 | 52.14314 | 21.54061 | 9144 ft | 255 kts | 233° |
| 2026-05-04 17:34 | 52.13228 | 21.51763 | 8531 ft | 258 kts | 233° |
| 2026-05-04 17:35 | 52.09915 | 21.44722 | 6769 ft | 265 kts | 234° |
| 2026-05-04 17:35 | 52.07703 | 21.40017 | 5929 ft | 256 kts | 234° |
| 2026-05-04 17:35 | 52.06624 | 21.37719 | 5630 ft | 255 kts | 233° |
| 2026-05-04 17:36 | 52.05556 | 21.35449 | 5458 ft | 249 kts | 233° |
| 2026-05-04 17:36 | 52.04517 | 21.33246 | 5327 ft | 242 kts | 233° |
| 2026-05-04 17:36 | 52.03512 | 21.31117 | 5219 ft | 234 kts | 233° |
| 2026-05-04 17:36 | 52.02538 | 21.29059 | 5091 ft | 227 kts | 231° |
| 2026-05-04 17:37 | 52.01315 | 21.27541 | 5010 ft | 222 kts | 201° |
| 2026-05-04 17:37 | 51.99784 | 21.27194 | 4965 ft | 227 kts | 179° |
| 2026-05-04 17:37 | 51.98251 | 21.27884 | 4915 ft | 234 kts | 158° |
| 2026-05-04 17:37 | 51.96803 | 21.29118 | 4860 ft | 237 kts | 156° |
| 2026-05-04 17:38 | 51.95341 | 21.30373 | 4784 ft | 238 kts | 159° |
| 2026-05-04 17:38 | 51.93752 | 21.30745 | 4501 ft | 228 kts | 198° |
| 2026-05-04 17:38 | 51.92452 | 21.29449 | 4368 ft | 219 kts | 229° |
| 2026-05-04 17:38 | 51.91673 | 21.27365 | 4258 ft | 218 kts | 251° |
| 2026-05-04 17:39 | 51.92143 | 21.22572 | 4041 ft | 230 kts | 303° |
| 2026-05-04 17:39 | 51.93296 | 21.20754 | 3936 ft | 235 kts | 316° |
| 2026-05-04 17:39 | 51.94558 | 21.19069 | 3806 ft | 234 kts | 317° |
| 2026-05-04 17:40 | 51.95809 | 21.17409 | 3680 ft | 231 kts | 317° |
| 2026-05-04 17:40 | 51.97047 | 21.15755 | 3566 ft | 231 kts | 317° |
| 2026-05-04 17:40 | 51.98284 | 21.14094 | 3460 ft | 231 kts | 317° |
| 2026-05-04 17:40 | 51.99500 | 21.12457 | 3364 ft | 221 kts | 316° |
| 2026-05-04 17:41 | 52.00649 | 21.10911 | 3229 ft | 209 kts | 317° |
| 2026-05-04 17:41 | 52.01825 | 21.09629 | 3096 ft | 199 kts | 327° |
| 2026-05-04 17:41 | 52.03010 | 21.08596 | 3003 ft | 187 kts | 328° |
| 2026-05-04 17:41 | 52.04127 | 21.07629 | 2801 ft | 179 kts | 328° |
| 2026-05-04 17:42 | 52.05213 | 21.06679 | 2583 ft | 175 kts | 327° |
| 2026-05-04 17:42 | 52.06282 | 21.05740 | 2361 ft | 175 kts | 327° |
| 2026-05-04 17:42 | 52.07345 | 21.04806 | 2134 ft | 171 kts | 327° |
| 2026-05-04 17:42 | 52.08355 | 21.03923 | 1961 ft | 159 kts | 327° |
| 2026-05-04 17:43 | 52.09310 | 21.03084 | 1710 ft | 152 kts | 327° |
| 2026-05-04 17:43 | 52.10236 | 21.02279 | 1511 ft | 150 kts | 327° |
| 2026-05-04 17:43 | 52.11155 | 21.01451 | 1320 ft | 151 kts | 327° |
| 2026-05-04 17:43 | 52.12091 | 21.00634 | 1130 ft | 153 kts | 329° |
| 2026-05-04 17:44 | 52.13025 | 20.99817 | 929 ft | 152 kts | 329° |
| 2026-05-04 17:44 | 52.13953 | 20.98999 | 714 ft | 150 kts | 329° |
| 2026-05-04 17:44 | 52.14869 | 20.98193 | 532 ft | 151 kts | 328° |
| 2026-05-04 17:44 | 52.15802 | 20.97386 | 349 ft | 152 kts | 330° |
| 2026-05-04 17:45 | 52.16602 | 20.96685 | 339 ft | 101 kts | 331° |
| 2026-05-04 17:45 | 52.17027 | 20.96311 | 335 ft | 43 kts | 333° |
| 2026-05-04 17:45 | 52.17216 | 20.96241 | 335 ft | 25 kts | 356° |
| 2026-05-04 17:45 | 52.17342 | 20.96242 | 336 ft | 13 kts | 2° |
| 2026-05-04 17:46 | 52.17400 | 20.96287 | 334 ft | 7 kts | 64° |
| 2026-05-04 17:46 | 52.17402 | 20.96366 | 336 ft | 7 kts | 110° |
| 2026-05-04 17:46 | 52.17366 | 20.96419 | 335 ft | 8 kts | 150° |
| 2026-05-04 17:46 | 52.17313 | 20.96465 | 334 ft | 10 kts | 152° |
| 2026-05-04 17:47 | 52.17247 | 20.96521 | 336 ft | 12 kts | 152° |
| 2026-05-04 17:47 | 52.17167 | 20.96591 | 333 ft | 12 kts | 152° |
| 2026-05-04 17:47 | 52.17135 | 20.96700 | 338 ft | 12 kts | 68° |
| 2026-05-04 17:47 | 52.17165 | 20.96800 | 335 ft | 9 kts | 76° |
| 2026-05-04 17:48 | 52.17130 | 20.96864 | 338 ft | 8 kts | 150° |
| 2026-05-04 17:48 | 52.17125 | 20.96940 | 336 ft | 8 kts | 61° |
| 2026-05-04 17:48 | 52.17146 | 20.97001 | 338 ft | 1 kts | 62° |
| 2026-05-04 17:48 | 52.17147 | 20.97006 | 336 ft | 0 kts | 62° |